WetterOnline ( https://www.wetteronline.de )

Wetter aktuell Kaisersbach

Aktuelles Wetter: Kaisersbach-Cronhütte (489m)

6-stündlich | Neueste Meldungen
Ortszeit Temperatur Wetter
Do, 22.02. 13:00 8.9° C leichter Regen
Do, 22.02. 7:00 7.4° C leichter Regen
Do, 22.02. 1:00 10.3° C bedeckt
Mi, 21.02. 19:00 6.8° C bewölkt
Mi, 21.02. 13:00 9.6° C bedeckt
Mi, 21.02. 7:00 2.0° C wolkig
Mi, 21.02. 1:00 2.6° C wolkig
Di, 20.02. 19:00 5.3° C bedeckt
Ortszeit Temperatur Wetter
Do, 22.02. 14:00 9.4° C leichter Regen
Do, 22.02. 13:50 9.4° C leichter Regen
Do, 22.02. 13:40 9.3° C leichter Regen
Do, 22.02. 13:30 9.0° C leichter Regen
Do, 22.02. 13:20 9.0° C leichter Regen
Do, 22.02. 13:10 8.9° C leichter Regen
Do, 22.02. 13:00 8.9° C leichter Regen
Do, 22.02. 12:30 9.0° C leichter Regen
Do, 22.02. 12:00 9.1° C leichter Regen
Do, 22.02. 11:30 8.4° C leichter Regen
Do, 22.02. 11:00 8.2° C leichter Regen
Ortszeit Relative Feuchte Sichtweite
Do, 22.02. 13:00 90% 16 km
Do, 22.02. 7:00 90% 16 km
Do, 22.02. 1:00 51% >70 km
Mi, 21.02. 19:00 75% 65 km
Mi, 21.02. 13:00 55% 55 km
Mi, 21.02. 7:00 95% 24 km
Mi, 21.02. 1:00 94% 30 km
Di, 20.02. 19:00 81% 45 km
Ortszeit Relative Feuchte Sichtweite
Do, 22.02. 14:00 87% 12 km
Do, 22.02. 13:50 87% -
Do, 22.02. 13:40 89% -
Do, 22.02. 13:30 90% 20 km
Do, 22.02. 13:20 90% -
Do, 22.02. 13:10 88% -
Do, 22.02. 13:00 90% 16 km
Do, 22.02. 12:30 88% 24 km
Do, 22.02. 12:00 88% 21 km
Do, 22.02. 11:30 91% 18 km
Do, 22.02. 11:00 90% 20 km
Ortszeit Niederschlagsmenge Niederschlagsart
Do, 22.02. 13:00 11 l/m2 in 6 Std. Regen
Do, 22.02. 7:00 10 l/m2 in 12 Std. Regen
Do, 22.02. 1:00 0.1 l/m2 in 6 Std. Regen
Mi, 21.02. 19:00 0.0 l/m2 in 12 Std. -
Mi, 21.02. 13:00 0.0 l/m2 in 6 Std. -
Mi, 21.02. 7:00 0.1 l/m2 in 12 Std. Regen
Mi, 21.02. 1:00 0.0 l/m2 in 6 Std. -
Di, 20.02. 19:00 0.0 l/m2 in 12 Std. -
Ortszeit Niederschlagsmenge Niederschlagsart
Do, 22.02. 14:00 1.4 l/m2 in 1 Std. Regen
Do, 22.02. 13:50 keine Meldung -
Do, 22.02. 13:40 keine Meldung -
Do, 22.02. 13:30 1.0 l/m2 in 30 Min -
Do, 22.02. 13:20 keine Meldung -
Do, 22.02. 13:10 keine Meldung -
Do, 22.02. 13:00 1.6 l/m2 in 1 Std. Regen
Do, 22.02. 12:30 0.5 l/m2 in 30 Min -
Do, 22.02. 12:00 1.2 l/m2 in 1 Std. Regen
Do, 22.02. 11:30 0.7 l/m2 in 30 Min -
Do, 22.02. 11:00 1.4 l/m2 in 1 Std. Regen
Ortszeit Stärke Spitze Richtung
km/h Bft. km/h Grad Sektor
Do, 22.02. 13:00 15 3 35 210° SW
Do, 22.02. 7:00 11 2 58 210° SW
Do, 22.02. 1:00 14 3 40 210° SW
Mi, 21.02. 19:00 4 1 22 220° SW
Mi, 21.02. 13:00 7 2 22 240° SW
Mi, 21.02. 7:00 4 1 11 120° SO
Mi, 21.02. 1:00 0 0 11 - -
Di, 20.02. 19:00 4 1 25 230° SW
Ortszeit Stärke Spitze Richtung
km/h Bft. km/h Grad Sektor
Do, 22.02. 14:00 13 3 30 200° S
Do, 22.02. 13:50 13 3 - 200° S
Do, 22.02. 13:40 13 3 - 190° S
Do, 22.02. 13:30 14 3 29 210° SW
Do, 22.02. 13:20 14 3 - 210° SW
Do, 22.02. 13:10 14 3 - 210° SW
Do, 22.02. 13:00 15 3 35 210° SW
Do, 22.02. 12:30 13 3 28 200° S
Do, 22.02. 12:00 14 3 29 210° SW
Do, 22.02. 11:30 9 2 19 190° S
Do, 22.02. 11:00 11 2 29 200° S
Ortszeit Untergrenze Bedeckung Gattung
total tief tief mittel hoch
Do, 22.02. 13:00 600 m 8/8 8/8 - - -
Do, 22.02. 7:00 570 m 8/8 8/8 - - -
Do, 22.02. 1:00 1200 m 8/8 8/8 - - -
Mi, 21.02. 19:00 2100 m 8/8 7/8 - - -
Mi, 21.02. 13:00 4200 m 8/8 8/8 - - -
Mi, 21.02. 7:00 2700 m 8/8 1/8 - - -
Mi, 21.02. 1:00 1800 m 8/8 2/8 - - -
Di, 20.02. 19:00 3300 m 8/8 8/8 - - -
Ortszeit Bedeckungsgrad in Achtel und Wolkenuntergrenze
Do, 22.02. 14:00 2(960m) 7(1500m) 7(2100m)
Do, 22.02. 13:50 2(960m) 7(1500m) 7(2100m)
Do, 22.02. 13:40 7
Do, 22.02. 13:30 5(1350m) 7(1500m)
Do, 22.02. 13:20 5(1350m) 7(1500m)
Do, 22.02. 13:10 7
Do, 22.02. 13:00 1(600m) 7(1320m) 8(1500m)
Do, 22.02. 12:30 3(600m) 8(1320m)
Do, 22.02. 12:00 3(600m) 8(1260m)
Do, 22.02. 11:30 2(600m) 3(750m) 7(1140m)
Do, 22.02. 11:00 1(630m) 8(1140m)
Ortszeit Luftdruck NN (hPa) Tendenz (hPa in 3 Std.)
Do, 22.02. 13:00 999 - 2,7
Do, 22.02. 7:00 1004 - 2,3
Do, 22.02. 1:00 1009 - 3,1
Mi, 21.02. 19:00 1015 - 2,4
Mi, 21.02. 13:00 1020 - 2,3
Mi, 21.02. 7:00 1026 - 1,6
Mi, 21.02. 1:00 1029 - 0,8
Di, 20.02. 19:00 1030 - 0,1
Ortszeit Luftdruck NN (hPa) Tendenz (hPa in 3 Std.)
Do, 22.02. 14:00 997 - 3,4
Do, 22.02. 13:50 997 keine Meldung
Do, 22.02. 13:40 997 keine Meldung
Do, 22.02. 13:30 998 - 3,4
Do, 22.02. 13:20 998 keine Meldung
Do, 22.02. 13:10 998 keine Meldung
Do, 22.02. 13:00 999 - 2,7
Do, 22.02. 12:30 1000 - 2,3
Do, 22.02. 12:00 1000 - 2,0
Do, 22.02. 11:30 1001 - 1,8
Do, 22.02. 11:00 1001 - 2,0
Ortszeit Schneehöhe (cm)
Do, 22.02. 13:00 0
Do, 22.02. 7:00 0
Do, 22.02. 1:00 0
Mi, 21.02. 19:00 0
Mi, 21.02. 13:00 0
Mi, 21.02. 7:00 0
Mi, 21.02. 1:00 0
Di, 20.02. 19:00 0
Ortszeit Schneehöhe (cm)
Do, 22.02. 14:00 0
Do, 22.02. 13:50 0
Do, 22.02. 13:40 -
Do, 22.02. 13:30 0
Do, 22.02. 13:20 0
Do, 22.02. 13:10 -
Do, 22.02. 13:00 0
Do, 22.02. 12:30 0
Do, 22.02. 12:00 0
Do, 22.02. 11:30 0
Do, 22.02. 11:00 0
Link zu dieser Seite / Seite empfehlen

Das Wetter in ...